createdAt,value
2022-10-02T00:01:17.249Z,12.80
2022-10-02T00:04:26.675Z,12.87
2022-10-02T00:07:35.315Z,12.93
2022-10-02T00:10:44.823Z,12.93
2022-10-02T00:13:50.761Z,12.98
2022-10-02T00:16:57.135Z,13.01
2022-10-02T00:20:02.305Z,13.09
2022-10-02T00:23:12.115Z,13.09
2022-10-02T00:26:19.982Z,13.10
2022-10-02T00:29:32.197Z,13.13
2022-10-02T00:32:41.404Z,13.12
2022-10-02T00:36:03.989Z,13.12
2022-10-02T00:39:16.874Z,13.12
2022-10-02T00:42:50.431Z,13.09
2022-10-02T00:46:13.524Z,13.09
2022-10-02T00:49:40.383Z,13.10
2022-10-02T00:52:59.927Z,13.11
2022-10-02T00:56:19.976Z,13.09
2022-10-02T00:59:44.721Z,13.07
2022-10-02T01:03:01.856Z,13.07
2022-10-02T01:06:04.896Z,13.10
2022-10-02T01:09:09.053Z,13.12
2022-10-02T01:12:12.845Z,13.16
2022-10-02T01:15:18.414Z,13.19
2022-10-02T01:18:21.793Z,13.26
2022-10-02T01:21:34.666Z,13.21
2022-10-02T01:24:49.337Z,13.23
2022-10-02T01:27:54.054Z,13.22
2022-10-02T01:31:02.981Z,13.23
2022-10-02T01:34:06.354Z,13.22
2022-10-02T01:37:10.202Z,13.25
2022-10-02T01:40:29.513Z,13.25
2022-10-02T01:43:35.741Z,13.27
2022-10-02T01:46:42.543Z,13.30
2022-10-02T01:50:01.298Z,13.30
2022-10-02T01:53:12.262Z,13.35
2022-10-02T01:56:24.232Z,13.35
2022-10-02T01:59:41.222Z,13.35
2022-10-02T02:02:53.005Z,13.36
2022-10-02T02:06:01.074Z,13.37
2022-10-02T02:09:10.792Z,13.35
2022-10-02T02:12:23.168Z,13.35
2022-10-02T02:15:30.920Z,13.36
2022-10-02T02:18:40.447Z,13.34
2022-10-02T02:21:48.329Z,13.40
2022-10-02T02:24:56.471Z,13.36
2022-10-02T02:28:04.396Z,13.39
2022-10-02T02:31:09.961Z,13.39
2022-10-02T02:34:18.206Z,13.40
2022-10-02T02:37:25.142Z,13.40
2022-10-02T02:40:32.263Z,13.39
2022-10-02T02:43:44.035Z,13.42
2022-10-02T02:47:05.315Z,13.41
2022-10-02T02:50:13.389Z,13.39
2022-10-02T02:53:20.167Z,13.38
2022-10-02T02:56:24.928Z,13.36
2022-10-02T02:59:33.978Z,13.34
2022-10-02T03:02:37.084Z,13.34
2022-10-02T03:05:44.778Z,13.32
2022-10-02T03:08:50.312Z,13.34
2022-10-02T03:12:02.508Z,13.33
2022-10-02T03:15:26.575Z,13.33
2022-10-02T03:18:55.783Z,13.32
2022-10-02T03:22:06.559Z,13.35
2022-10-02T03:25:14.924Z,13.40
2022-10-02T03:28:43.471Z,13.41
2022-10-02T03:31:48.212Z,13.39
2022-10-02T03:34:51.910Z,13.40
2022-10-02T03:37:58.583Z,13.41
2022-10-02T03:41:01.562Z,13.40
2022-10-02T03:44:04.421Z,13.39
2022-10-02T03:47:11.594Z,13.39
2022-10-02T03:50:14.678Z,13.41
2022-10-02T03:53:20.125Z,13.39
2022-10-02T03:56:37.906Z,13.41
2022-10-02T03:59:46.139Z,13.44
2022-10-02T04:02:55.239Z,13.43
2022-10-02T04:06:03.283Z,13.41
2022-10-02T04:09:11.646Z,13.40
2022-10-02T04:12:17.643Z,13.44
2022-10-02T04:15:25.648Z,13.40
2022-10-02T04:18:36.400Z,13.39
2022-10-02T04:21:47.916Z,13.41
2022-10-02T04:24:55.799Z,13.39
2022-10-02T04:28:02.477Z,13.39
2022-10-02T04:31:12.863Z,13.37
2022-10-02T04:34:17.585Z,13.37
2022-10-02T04:37:57.156Z,13.37
2022-10-02T04:41:14.646Z,13.37
2022-10-02T04:44:35.912Z,13.35
2022-10-02T04:47:57.314Z,13.37
2022-10-02T04:51:13.755Z,13.42
2022-10-02T04:54:35.751Z,13.43
2022-10-02T04:57:54.802Z,13.40
2022-10-02T05:01:09.270Z,13.39
2022-10-02T05:04:28.992Z,13.36
2022-10-02T05:07:54.015Z,13.34
2022-10-02T05:11:14.986Z,13.31
2022-10-02T05:14:44.115Z,13.30
2022-10-02T05:18:09.121Z,13.26
2022-10-02T05:21:53.468Z,13.23
2022-10-02T05:25:12.783Z,13.20
2022-10-02T05:28:35.554Z,13.19
2022-10-02T05:31:51.830Z,13.17
2022-10-02T05:35:11.615Z,13.16
2022-10-02T05:38:29.345Z,13.13
2022-10-02T05:41:43.005Z,13.12
2022-10-02T05:44:50.328Z,13.09
2022-10-02T05:47:57.593Z,13.11
2022-10-02T05:51:11.958Z,13.11
2022-10-02T05:54:25.938Z,13.13
2022-10-02T05:57:34.251Z,13.17
2022-10-02T06:00:41.554Z,13.17
2022-10-02T06:03:49.876Z,13.15
2022-10-02T06:07:10.667Z,13.17
2022-10-02T06:10:20.073Z,13.15
2022-10-02T06:13:35.686Z,13.15
2022-10-02T06:16:46.073Z,13.15
2022-10-02T06:19:56.325Z,13.17
2022-10-02T06:23:07.584Z,13.17
2022-10-02T06:26:15.944Z,13.19
2022-10-02T06:29:27.401Z,13.21
2022-10-02T06:32:36.230Z,13.21
2022-10-02T06:35:55.155Z,13.19
2022-10-02T06:39:24.152Z,13.18
2022-10-02T06:42:37.310Z,13.19
2022-10-02T06:45:50.570Z,13.21
2022-10-02T06:48:58.391Z,13.20
2022-10-02T06:52:13.435Z,13.22
2022-10-02T06:55:35.224Z,13.26
2022-10-02T06:58:57.261Z,13.30
2022-10-02T07:02:14.192Z,13.28
2022-10-02T07:05:40.878Z,13.27
2022-10-02T07:09:18.514Z,13.29
2022-10-02T07:12:35.315Z,13.29
2022-10-02T07:16:09.414Z,13.30
2022-10-02T07:19:35.791Z,13.32
2022-10-02T07:22:51.551Z,13.32
2022-10-02T07:26:15.419Z,13.35
2022-10-02T07:29:33.254Z,13.35
2022-10-02T07:32:49.243Z,13.38
2022-10-02T07:35:59.154Z,13.37
2022-10-02T07:39:11.420Z,13.35
2022-10-02T07:42:50.444Z,13.37
2022-10-02T07:45:59.776Z,13.39
2022-10-02T07:49:20.986Z,13.42
2022-10-02T07:52:33.563Z,13.48
2022-10-02T07:55:42.315Z,13.54
2022-10-02T07:58:53.819Z,13.53
2022-10-02T08:02:00.696Z,13.53
2022-10-02T08:05:08.095Z,13.50
2022-10-02T08:08:17.499Z,13.50
2022-10-02T08:11:28.090Z,13.54
2022-10-02T08:14:38.286Z,13.55
2022-10-02T08:17:46.885Z,13.55
2022-10-02T08:20:50.609Z,13.62
2022-10-02T08:24:00.484Z,13.76
2022-10-02T08:27:10.280Z,13.88
2022-10-02T08:30:14.682Z,13.97
2022-10-02T08:33:20.463Z,13.95
2022-10-02T08:36:41.506Z,13.93
2022-10-02T08:40:17.838Z,13.96
2022-10-02T08:43:47.383Z,14.00
2022-10-02T08:47:13.610Z,14.01
2022-10-02T08:50:36.209Z,14.08
2022-10-02T08:54:16.607Z,14.14
2022-10-02T08:57:53.287Z,14.24
2022-10-02T09:01:10.027Z,14.36
2022-10-02T09:04:49.309Z,14.43
2022-10-02T09:08:28.351Z,14.46
2022-10-02T09:12:25.109Z,14.59
2022-10-02T09:15:44.578Z,14.52
2022-10-02T09:18:59.962Z,14.48
2022-10-02T09:22:22.305Z,14.41
2022-10-02T09:25:37.301Z,14.35
2022-10-02T09:29:09.990Z,14.37
2022-10-02T09:33:07.739Z,14.43
2022-10-02T09:36:45.026Z,14.47
2022-10-02T09:40:20.921Z,14.43
2022-10-02T09:43:51.705Z,14.41
2022-10-02T09:47:30.969Z,14.45
2022-10-02T09:51:12.798Z,14.43
2022-10-02T09:54:51.770Z,14.42
2022-10-02T09:58:30.928Z,14.39
2022-10-02T10:02:23.330Z,14.35
2022-10-02T10:06:03.514Z,14.33
2022-10-02T10:09:36.454Z,14.28
2022-10-02T10:13:12.321Z,14.24
2022-10-02T10:16:38.222Z,14.27
2022-10-02T10:20:17.172Z,14.29
2022-10-02T10:23:49.653Z,14.26
2022-10-02T10:27:20.832Z,14.35
2022-10-02T10:30:57.427Z,14.46
2022-10-02T10:34:28.300Z,14.49
2022-10-02T10:38:14.085Z,14.48
2022-10-02T10:41:45.218Z,14.46
2022-10-02T10:45:08.647Z,14.44
2022-10-02T10:48:28.431Z,14.35
2022-10-02T10:51:35.218Z,14.32
2022-10-02T10:55:04.138Z,14.31
2022-10-02T10:58:21.189Z,14.29
2022-10-02T11:01:38.494Z,14.35
2022-10-02T11:05:01.428Z,14.33
2022-10-02T11:08:25.726Z,14.31
2022-10-02T11:11:39.779Z,14.28
2022-10-02T11:15:01.225Z,14.28
2022-10-02T11:18:26.453Z,14.33
2022-10-02T11:21:59.639Z,14.34
2022-10-02T11:25:21.824Z,14.37
2022-10-02T11:28:51.368Z,14.30
2022-10-02T11:32:21.067Z,14.31
2022-10-02T11:35:33.391Z,14.33
2022-10-02T11:39:18.323Z,14.29
2022-10-02T11:42:34.435Z,14.29
2022-10-02T11:45:55.416Z,14.31
2022-10-02T11:49:32.578Z,14.33
2022-10-02T11:52:51.754Z,14.35
2022-10-02T11:56:11.666Z,14.38
2022-10-02T11:59:34.864Z,14.39
2022-10-02T12:02:42.817Z,14.42
2022-10-02T12:05:55.746Z,14.42
2022-10-02T12:09:11.391Z,14.42
2022-10-02T12:12:35.512Z,14.43
2022-10-02T12:15:45.178Z,14.42
2022-10-02T12:19:01.150Z,14.49
2022-10-02T12:22:45.267Z,14.43
2022-10-02T12:26:14.443Z,14.42
2022-10-02T12:29:27.685Z,14.38
2022-10-02T12:32:50.990Z,14.33
2022-10-02T12:36:34.681Z,14.33
2022-10-02T12:39:45.337Z,14.34
2022-10-02T12:43:20.678Z,14.33
2022-10-02T12:46:48.699Z,14.30
2022-10-02T12:50:04.274Z,14.29
2022-10-02T12:53:37.387Z,14.29
2022-10-02T12:57:38.917Z,14.30
2022-10-02T13:01:05.461Z,14.35
2022-10-02T13:04:41.891Z,14.35
2022-10-02T13:08:11.550Z,14.31
2022-10-02T13:11:27.707Z,14.29
2022-10-02T13:14:55.001Z,14.31
2022-10-02T13:18:13.677Z,14.33
2022-10-02T13:21:26.194Z,14.26
2022-10-02T13:24:45.966Z,14.25
2022-10-02T13:28:04.582Z,14.17
2022-10-02T13:31:21.188Z,14.20
2022-10-02T13:34:42.289Z,14.23
2022-10-02T13:38:01.518Z,14.21
2022-10-02T13:41:17.057Z,14.15
2022-10-02T13:44:36.679Z,14.14
2022-10-02T13:47:46.819Z,14.13
2022-10-02T13:50:59.388Z,14.12
2022-10-02T13:54:53.634Z,14.10
2022-10-02T13:58:15.632Z,14.09
2022-10-02T14:01:37.275Z,14.08
2022-10-02T14:04:57.022Z,14.07
2022-10-02T14:08:19.490Z,14.10
2022-10-02T14:11:39.377Z,14.11
2022-10-02T14:15:01.771Z,14.14
2022-10-02T14:18:27.664Z,14.12
2022-10-02T14:21:36.947Z,14.16
2022-10-02T14:25:04.851Z,14.15
2022-10-02T14:28:33.266Z,14.14
2022-10-02T14:32:00.618Z,14.16
2022-10-02T14:35:36.944Z,14.13
2022-10-02T14:38:56.377Z,14.13
2022-10-02T14:42:29.574Z,14.13
2022-10-02T14:46:00.784Z,14.13
2022-10-02T14:49:43.589Z,14.14
2022-10-02T14:53:16.481Z,14.16
2022-10-02T14:56:43.835Z,14.16
2022-10-02T15:00:04.257Z,14.15
2022-10-02T15:03:36.909Z,14.13
2022-10-02T15:06:59.011Z,14.07
2022-10-02T15:10:09.961Z,14.02
2022-10-02T15:13:27.075Z,13.99
2022-10-02T15:17:01.741Z,13.94
2022-10-02T15:20:22.339Z,13.94
2022-10-02T15:23:42.431Z,13.92
2022-10-02T15:26:56.195Z,13.96
2022-10-02T15:30:15.541Z,13.99
2022-10-02T15:33:28.447Z,13.94
2022-10-02T15:36:51.014Z,13.93
2022-10-02T15:40:21.290Z,13.91
2022-10-02T15:43:39.624Z,13.91
2022-10-02T15:46:54.673Z,13.86
2022-10-02T15:50:21.950Z,13.81
2022-10-02T15:53:52.183Z,13.82
2022-10-02T15:57:14.087Z,13.78
2022-10-02T16:00:20.722Z,13.74
2022-10-02T16:03:33.534Z,13.74
2022-10-02T16:06:58.418Z,13.73
2022-10-02T16:10:19.657Z,13.76
2022-10-02T16:13:47.178Z,13.76
2022-10-02T16:17:12.181Z,13.76
2022-10-02T16:20:59.100Z,13.73
2022-10-02T16:24:20.301Z,13.74
2022-10-02T16:27:46.961Z,13.74
2022-10-02T16:31:17.808Z,13.72
2022-10-02T16:34:41.564Z,13.68
2022-10-02T16:37:49.385Z,13.66
2022-10-02T16:40:59.982Z,13.64
2022-10-02T16:44:25.488Z,13.60
2022-10-02T16:47:35.529Z,13.59
2022-10-02T16:51:05.776Z,13.61
2022-10-02T16:54:22.682Z,13.61
2022-10-02T16:57:50.253Z,13.61
2022-10-02T17:00:59.847Z,13.59
2022-10-02T17:04:20.658Z,13.61
2022-10-02T17:07:32.734Z,13.61
2022-10-02T17:10:55.654Z,13.65
2022-10-02T17:14:13.397Z,13.57
2022-10-02T17:17:27.151Z,13.56
2022-10-02T17:20:36.023Z,13.51
2022-10-02T17:23:51.324Z,13.46
2022-10-02T17:27:08.771Z,13.49
2022-10-02T17:30:21.595Z,13.51
2022-10-02T17:33:32.668Z,13.50
2022-10-02T17:36:38.930Z,13.48
2022-10-02T17:40:03.411Z,13.44
2022-10-02T17:43:18.421Z,13.45
2022-10-02T17:46:40.154Z,13.44
2022-10-02T17:49:58.114Z,13.45
2022-10-02T17:53:35.141Z,13.47
2022-10-02T17:56:53.025Z,13.47
2022-10-02T18:00:09.426Z,13.48
2022-10-02T18:03:30.730Z,13.42
2022-10-02T18:06:46.822Z,13.39
2022-10-02T18:10:03.405Z,13.40
2022-10-02T18:13:27.669Z,13.37
2022-10-02T18:16:36.556Z,13.37
2022-10-02T18:19:52.732Z,13.39
2022-10-02T18:23:20.067Z,13.40
2022-10-02T18:26:40.302Z,13.40
2022-10-02T18:30:08.714Z,13.36
2022-10-02T18:33:31.991Z,13.34
2022-10-02T18:36:51.750Z,13.34
2022-10-02T18:40:16.892Z,13.28
2022-10-02T18:43:35.230Z,13.25
2022-10-02T18:46:50.373Z,13.23
2022-10-02T18:50:08.254Z,13.22
2022-10-02T18:53:38.077Z,13.25
2022-10-02T18:56:52.564Z,13.23
2022-10-02T19:00:04.405Z,13.26
2022-10-02T19:03:24.457Z,13.24
2022-10-02T19:06:32.462Z,13.24
2022-10-02T19:09:39.349Z,13.30
2022-10-02T19:12:49.854Z,13.28
2022-10-02T19:15:58.918Z,13.24
2022-10-02T19:19:12.358Z,13.23
2022-10-02T19:22:24.463Z,13.22
2022-10-02T19:25:30.320Z,13.23
2022-10-02T19:28:48.480Z,13.23
2022-10-02T19:31:56.224Z,13.20
2022-10-02T19:35:06.677Z,13.17
2022-10-02T19:38:17.367Z,13.17
2022-10-02T19:41:23.124Z,13.16
2022-10-02T19:44:33.441Z,13.18
2022-10-02T19:47:43.166Z,13.16
2022-10-02T19:50:51.926Z,13.13
2022-10-02T19:54:02.302Z,13.13
2022-10-02T19:57:13.614Z,13.13
2022-10-02T20:00:21.363Z,13.16
2022-10-02T20:03:27.631Z,13.15
2022-10-02T20:06:38.023Z,13.13
2022-10-02T20:09:49.434Z,13.12
2022-10-02T20:13:00.193Z,13.09
2022-10-02T20:16:30.377Z,13.08
2022-10-02T20:19:36.953Z,13.09
2022-10-02T20:22:45.228Z,13.07
2022-10-02T20:25:53.297Z,13.07
2022-10-02T20:29:01.393Z,13.10
2022-10-02T20:32:12.808Z,13.07
2022-10-02T20:35:19.454Z,13.03
2022-10-02T20:38:28.466Z,13.04
2022-10-02T20:41:36.636Z,13.00
2022-10-02T20:44:39.649Z,12.94
2022-10-02T20:48:13.496Z,12.90
2022-10-02T20:51:22.110Z,12.85
2022-10-02T20:54:44.387Z,12.79
2022-10-02T20:58:08.662Z,12.65
2022-10-02T21:01:17.957Z,12.50
2022-10-02T21:05:05.458Z,12.39
2022-10-02T21:08:30.958Z,12.29
2022-10-02T21:12:09.823Z,12.22
2022-10-02T21:15:47.736Z,12.13
2022-10-02T21:19:24.850Z,12.07
2022-10-02T21:22:57.398Z,12.03
2022-10-02T21:26:36.955Z,12.02
2022-10-02T21:29:59.651Z,11.95
2022-10-02T21:33:07.029Z,11.98
2022-10-02T21:36:17.102Z,11.99
2022-10-02T21:43:50.131Z,12.08
2022-10-02T21:47:26.238Z,12.13
2022-10-02T21:51:13.992Z,12.16
2022-10-02T21:54:56.017Z,12.21
2022-10-02T21:58:31.360Z,12.28
2022-10-02T22:02:08.393Z,12.31
2022-10-02T22:05:33.424Z,12.38
2022-10-02T22:08:54.865Z,12.44
2022-10-02T22:12:30.829Z,12.51
2022-10-02T22:15:44.364Z,12.52
2022-10-02T22:18:54.434Z,12.50
2022-10-02T22:22:18.418Z,12.52
2022-10-02T22:25:35.192Z,12.53
2022-10-02T22:28:44.937Z,12.54
2022-10-02T22:32:28.042Z,12.57
2022-10-02T22:35:41.252Z,12.59
2022-10-02T22:38:48.001Z,12.61
2022-10-02T22:41:57.437Z,12.62
2022-10-02T22:45:06.651Z,12.63
2022-10-02T22:48:16.241Z,12.62
2022-10-02T22:51:23.470Z,12.56
2022-10-02T22:54:33.909Z,12.53
2022-10-02T22:57:41.838Z,12.49
2022-10-02T23:00:58.401Z,12.46
2022-10-02T23:04:07.730Z,12.43
2022-10-02T23:07:16.438Z,12.39
2022-10-02T23:10:29.915Z,12.40
2022-10-02T23:13:37.618Z,12.42
2022-10-02T23:16:49.055Z,12.48
2022-10-02T23:20:00.529Z,12.54
2022-10-02T23:23:14.388Z,12.56
2022-10-02T23:26:20.762Z,12.63
2022-10-02T23:29:31.736Z,12.66
2022-10-02T23:32:43.605Z,12.67
2022-10-02T23:35:53.057Z,12.67
2022-10-02T23:39:05.893Z,12.76
2022-10-02T23:42:16.633Z,12.70
2022-10-02T23:45:25.996Z,12.65
2022-10-02T23:48:31.003Z,12.65
2022-10-02T23:51:48.409Z,12.64
2022-10-02T23:55:03.433Z,12.62
2022-10-02T23:58:24.110Z,12.59
